TimeCST,TemperatureF,Dew PointF,Humidity,Sea Level PressureIn,VisibilityMPH,Wind Direction,Wind SpeedMPH,Gust SpeedMPH,PrecipitationIn,Events,Conditions,WindDirDegrees,DateUTC
12:53 AM,21.0,18.0,88,30.12,10.0,SW,8.1,-,N/A,,Clear,230,2013-02-13 06:53:00
1:53 AM,21.0,17.1,85,30.12,10.0,WSW,6.9,-,N/A,,Clear,240,2013-02-13 07:53:00
2:53 AM,21.9,18.0,85,30.11,10.0,WSW,5.8,-,N/A,,Clear,250,2013-02-13 08:53:00
3:53 AM,21.9,17.1,82,30.09,10.0,SW,6.9,-,N/A,,Clear,230,2013-02-13 09:53:00
4:53 AM,16.0,12.0,84,30.09,10.0,SW,8.1,-,N/A,,Clear,220,2013-02-13 10:53:00
5:53 AM,18.0,12.9,81,30.09,10.0,WSW,6.9,-,N/A,,Clear,250,2013-02-13 11:53:00
6:53 AM,23.0,15.1,72,30.09,10.0,West,4.6,-,N/A,,Clear,260,2013-02-13 12:53:00
7:53 AM,18.0,12.9,81,30.12,10.0,WSW,4.6,-,N/A,,Clear,240,2013-02-13 13:53:00
8:53 AM,21.0,17.1,85,30.12,10.0,West,3.5,-,N/A,,Clear,260,2013-02-13 14:53:00
9:53 AM,28.9,21.9,75,30.12,10.0,Calm,Calm,-,N/A,,Clear,0,2013-02-13 15:53:00
10:53 AM,35.1,24.1,64,30.10,10.0,Calm,Calm,-,N/A,,Clear,0,2013-02-13 16:53:00
11:53 AM,37.0,25.0,62,30.09,10.0,SSW,5.8,-,N/A,,Clear,200,2013-02-13 17:53:00
12:53 PM,41.0,26.1,55,30.07,10.0,SW,5.8,-,N/A,,Clear,220,2013-02-13 18:53:00
1:53 PM,41.0,27.0,57,30.04,10.0,North,3.5,-,N/A,,Clear,10,2013-02-13 19:53:00
2:53 PM,43.0,24.1,47,30.00,10.0,South,5.8,-,N/A,,Clear,190,2013-02-13 20:53:00
3:53 PM,44.1,26.1,49,29.99,10.0,South,10.4,-,N/A,,Clear,190,2013-02-13 21:53:00
4:53 PM,44.1,27.0,51,30.01,10.0,South,10.4,-,N/A,,Clear,180,2013-02-13 22:53:00
5:53 PM,43.0,25.0,49,29.99,10.0,South,8.1,-,N/A,,Clear,170,2013-02-13 23:53:00
6:53 PM,37.0,26.1,65,30.01,10.0,SE,4.6,-,N/A,,Clear,130,2013-02-14 00:53:00
7:53 PM,35.1,25.0,67,30.04,10.0,East,4.6,-,N/A,,Clear,90,2013-02-14 01:53:00
8:53 PM,33.1,24.1,70,30.04,10.0,ESE,3.5,-,N/A,,Clear,120,2013-02-14 02:53:00
9:53 PM,34.0,21.9,61,30.02,10.0,South,10.4,-,N/A,,Clear,170,2013-02-14 03:53:00
10:53 PM,34.0,21.0,59,30.02,10.0,SSW,5.8,-,N/A,,Clear,200,2013-02-14 04:53:00
11:53 PM,36.0,21.9,57,30.01,10.0,South,3.5,-,N/A,,Clear,180,2013-02-14 05:53:00